createdAt,value
2022-09-21T00:00:53.698Z,12.90
2022-09-21T00:03:22.915Z,13.00
2022-09-21T00:05:50.506Z,13.00
2022-09-21T00:08:18.548Z,12.90
2022-09-21T00:10:50.805Z,13.00
2022-09-21T00:13:27.876Z,12.90
2022-09-21T00:15:56.893Z,13.00
2022-09-21T00:18:24.913Z,13.00
2022-09-21T00:20:58.150Z,12.80
2022-09-21T00:23:28.079Z,12.90
2022-09-21T00:26:24.471Z,12.80
2022-09-21T00:28:55.070Z,12.80
2022-09-21T00:31:28.040Z,12.80
2022-09-21T00:34:01.926Z,12.80
2022-09-21T00:36:32.792Z,12.80
2022-09-21T00:39:01.737Z,12.70
2022-09-21T00:41:34.049Z,12.70
2022-09-21T00:44:17.285Z,12.70
2022-09-21T00:46:46.706Z,12.70
2022-09-21T00:49:14.916Z,12.60
2022-09-21T00:51:53.434Z,12.70
2022-09-21T00:54:38.630Z,12.80
2022-09-21T00:57:14.581Z,12.70
2022-09-21T00:59:44.698Z,12.70
2022-09-21T01:02:12.028Z,12.60
2022-09-21T01:04:43.703Z,12.70
2022-09-21T01:07:18.501Z,12.60
2022-09-21T01:09:51.389Z,12.60
2022-09-21T01:12:31.123Z,12.70
2022-09-21T01:15:29.119Z,12.60
2022-09-21T01:18:21.831Z,12.60
2022-09-21T01:21:20.601Z,12.50
2022-09-21T01:24:12.578Z,12.50
2022-09-21T01:27:07.598Z,12.50
2022-09-21T01:29:50.202Z,12.50
2022-09-21T01:32:26.508Z,12.40
2022-09-21T01:35:09.198Z,12.40
2022-09-21T01:37:44.804Z,12.30
2022-09-21T01:40:25.851Z,12.30
2022-09-21T01:42:57.872Z,12.30
2022-09-21T01:45:42.659Z,12.20
2022-09-21T01:48:13.904Z,12.20
2022-09-21T01:50:50.774Z,12.10
2022-09-21T01:53:26.696Z,12.10
2022-09-21T01:56:04.485Z,12.00
2022-09-21T01:58:36.659Z,12.00
2022-09-21T02:01:16.350Z,12.00
2022-09-21T02:04:00.270Z,12.00
2022-09-21T02:06:30.612Z,12.10
2022-09-21T02:08:58.329Z,12.00
2022-09-21T02:11:26.317Z,12.00
2022-09-21T02:13:59.926Z,12.10
2022-09-21T02:16:57.194Z,12.10
2022-09-21T02:19:53.331Z,12.10
2022-09-21T02:23:00.245Z,12.00
2022-09-21T02:25:46.438Z,12.10
2022-09-21T02:28:32.018Z,12.10
2022-09-21T02:31:36.074Z,12.20
2022-09-21T02:34:53.068Z,12.10
2022-09-21T02:37:38.384Z,12.10
2022-09-21T02:40:30.875Z,12.20
2022-09-21T02:43:06.802Z,12.10
2022-09-21T02:45:42.896Z,12.20
2022-09-21T02:48:19.154Z,12.20
2022-09-21T02:50:56.890Z,12.20
2022-09-21T02:53:29.507Z,12.20
2022-09-21T02:56:12.106Z,12.30
2022-09-21T02:58:43.839Z,12.20
2022-09-21T03:01:13.016Z,12.20
2022-09-21T03:03:41.704Z,12.20
2022-09-21T03:06:17.192Z,12.10
2022-09-21T03:08:46.788Z,12.10
2022-09-21T03:11:27.918Z,12.00
2022-09-21T03:13:55.256Z,12.00
2022-09-21T03:16:26.342Z,12.10
2022-09-21T03:19:00.005Z,12.10
2022-09-21T03:21:44.296Z,12.10
2022-09-21T03:24:12.366Z,12.00
2022-09-21T03:26:39.574Z,12.10
2022-09-21T03:29:07.412Z,12.10
2022-09-21T03:31:35.417Z,12.10
2022-09-21T03:34:03.219Z,12.10
2022-09-21T03:36:30.576Z,12.10
2022-09-21T03:38:59.573Z,12.10
2022-09-21T03:41:27.051Z,12.10
2022-09-21T03:43:58.471Z,12.10
2022-09-21T03:46:25.840Z,12.00
2022-09-21T03:48:57.430Z,12.00
2022-09-21T03:51:30.747Z,12.10
2022-09-21T03:54:01.497Z,11.90
2022-09-21T03:56:31.731Z,12.00
2022-09-21T03:59:04.700Z,12.00
2022-09-21T04:01:32.021Z,12.00
2022-09-21T04:04:01.284Z,11.90
2022-09-21T04:06:32.908Z,11.90
2022-09-21T04:09:04.024Z,11.60
2022-09-21T04:11:33.622Z,11.70
2022-09-21T04:14:03.105Z,11.70
2022-09-21T04:16:30.929Z,11.60
2022-09-21T04:19:06.185Z,11.70
2022-09-21T04:21:36.900Z,11.60
2022-09-21T04:24:10.208Z,11.60
2022-09-21T04:26:41.262Z,11.60
2022-09-21T04:29:19.549Z,11.60
2022-09-21T04:31:47.498Z,11.60
2022-09-21T04:34:24.942Z,11.70
2022-09-21T04:36:55.550Z,11.90
2022-09-21T04:42:07.813Z,12.00
2022-09-21T04:44:35.716Z,12.00
2022-09-21T04:47:03.265Z,12.00
2022-09-21T04:49:31.107Z,12.10
2022-09-21T04:52:00.052Z,12.10
2022-09-21T04:57:17.287Z,12.30
2022-09-21T04:59:47.780Z,12.40
2022-09-21T05:02:15.158Z,12.50
2022-09-21T05:05:00.615Z,12.50
2022-09-21T05:07:50.143Z,12.50
2022-09-21T05:10:18.063Z,12.60
2022-09-21T05:12:49.780Z,12.60
2022-09-21T05:15:35.398Z,12.70
2022-09-21T05:18:06.335Z,12.70
2022-09-21T05:20:36.087Z,12.70
2022-09-21T05:23:12.566Z,12.60
2022-09-21T05:25:57.357Z,12.60
2022-09-21T05:28:28.421Z,12.70
2022-09-21T05:31:17.625Z,12.60
2022-09-21T05:33:57.839Z,12.60
2022-09-21T05:36:57.521Z,12.60
2022-09-21T05:39:57.630Z,12.70
2022-09-21T05:42:34.664Z,12.80
2022-09-21T05:45:48.233Z,12.80
2022-09-21T05:48:30.914Z,13.00
2022-09-21T05:51:48.895Z,13.00
2022-09-21T05:54:38.507Z,13.00
2022-09-21T05:57:13.598Z,13.10
2022-09-21T06:00:28.265Z,13.10
2022-09-21T06:03:34.757Z,13.20
2022-09-21T06:06:08.762Z,13.30
2022-09-21T06:08:43.511Z,13.50
2022-09-21T06:11:37.945Z,13.60
2022-09-21T06:15:32.242Z,13.80
2022-09-21T06:17:27.952Z,13.90
2022-09-21T06:20:13.800Z,13.90
2022-09-21T06:23:01.219Z,13.90
2022-09-21T06:25:58.529Z,13.80
2022-09-21T06:28:32.609Z,13.80
2022-09-21T06:34:29.660Z,14.30
2022-09-21T06:37:07.934Z,14.70
2022-09-21T06:39:42.120Z,15.00
2022-09-21T06:42:24.862Z,15.30
2022-09-21T06:45:53.279Z,15.70
2022-09-21T06:51:59.339Z,16.80
2022-09-21T06:54:41.270Z,17.50
2022-09-21T06:57:37.707Z,17.90
2022-09-21T07:00:16.009Z,17.90
2022-09-21T07:03:09.063Z,17.70
2022-09-21T07:05:39.556Z,17.30
2022-09-21T07:11:09.253Z,16.50
2022-09-21T07:13:38.404Z,16.20
2022-09-21T07:16:13.007Z,15.90
2022-09-21T07:18:44.279Z,16.10
2022-09-21T07:21:40.012Z,16.20
2022-09-21T07:24:21.512Z,16.40
2022-09-21T07:27:05.303Z,17.00
2022-09-21T07:29:38.358Z,17.60
2022-09-21T07:32:14.447Z,18.60
2022-09-21T07:35:00.242Z,19.90
2022-09-21T07:40:32.591Z,23.40
2022-09-21T07:43:17.039Z,25.00
2022-09-21T07:45:59.174Z,26.70
2022-09-21T07:48:39.294Z,28.00
2022-09-21T07:51:26.101Z,28.90
2022-09-21T07:54:21.056Z,29.50
2022-09-21T07:57:22.035Z,29.80
2022-09-21T07:59:50.407Z,29.70
2022-09-21T08:02:40.859Z,29.70
2022-09-21T08:05:24.911Z,29.70
2022-09-21T08:08:08.591Z,29.70
2022-09-21T08:11:11.583Z,29.90
2022-09-21T08:13:52.726Z,30.20
2022-09-21T08:16:38.394Z,30.40
2022-09-21T08:22:47.964Z,30.10
2022-09-21T08:26:03.545Z,30.00
2022-09-21T08:29:05.293Z,30.00
2022-09-21T08:31:39.346Z,30.00
2022-09-21T08:37:00.484Z,29.50
2022-09-21T08:39:40.531Z,29.00
2022-09-21T08:43:50.297Z,28.30
2022-09-21T08:47:05.924Z,27.90
2022-09-21T08:50:25.886Z,27.50
2022-09-21T08:53:25.894Z,27.40
2022-09-21T08:57:06.125Z,27.30
2022-09-21T09:00:21.634Z,26.90
2022-09-21T09:06:33.495Z,25.60
2022-09-21T09:09:37.138Z,25.10
2022-09-21T09:12:19.802Z,24.90
2022-09-21T09:15:03.735Z,24.70
2022-09-21T09:29:40.990Z,23.70
2022-09-21T09:33:24.767Z,23.20
2022-09-21T09:43:03.942Z,23.90
2022-09-21T09:49:47.157Z,22.60
2022-09-21T09:52:18.318Z,21.80
2022-09-21T09:55:52.704Z,21.10
2022-09-21T09:58:51.082Z,20.60
2022-09-21T10:02:06.126Z,20.50
2022-09-21T10:04:40.556Z,20.50
2022-09-21T10:07:29.426Z,20.70
2022-09-21T10:09:58.153Z,20.80
2022-09-21T10:16:23.090Z,21.00
2022-09-21T10:19:05.588Z,21.20
2022-09-21T10:21:57.710Z,21.30
2022-09-21T10:27:37.962Z,21.90
2022-09-21T10:37:57.556Z,22.70
2022-09-21T10:40:48.728Z,22.30
2022-09-21T10:43:43.504Z,21.90
2022-09-21T10:55:26.163Z,21.80
2022-09-21T10:58:10.281Z,21.60
2022-09-21T11:01:07.785Z,21.60
2022-09-21T11:04:04.195Z,21.70
2022-09-21T11:06:55.112Z,21.70
2022-09-21T11:10:00.096Z,21.50
2022-09-21T11:13:28.572Z,21.20
2022-09-21T11:16:10.776Z,20.70
2022-09-21T11:19:18.249Z,20.20
2022-09-21T11:23:03.658Z,19.70
2022-09-21T11:33:26.928Z,18.30
2022-09-21T11:39:16.324Z,17.90
2022-09-21T11:42:35.927Z,17.80
2022-09-21T11:45:47.211Z,17.90
2022-09-21T11:49:14.206Z,18.20
2022-09-21T11:52:14.581Z,18.10
2022-09-21T11:55:00.612Z,18.10
2022-09-21T11:57:56.204Z,18.10
2022-09-21T12:01:12.493Z,18.00
2022-09-21T12:07:20.277Z,18.30
2022-09-21T12:10:06.259Z,18.30
2022-09-21T12:12:50.124Z,18.30
2022-09-21T12:15:50.552Z,18.00
2022-09-21T12:18:53.778Z,17.70
2022-09-21T12:21:39.587Z,17.60
2022-09-21T12:24:32.634Z,17.50
2022-09-21T12:30:31.640Z,17.60
2022-09-21T12:33:53.967Z,17.70
2022-09-21T12:36:50.227Z,17.70
2022-09-21T12:39:57.694Z,17.70
2022-09-21T12:42:49.346Z,17.70
2022-09-21T12:45:28.027Z,17.80
2022-09-21T12:48:45.710Z,17.80
2022-09-21T12:51:53.172Z,18.10
2022-09-21T12:54:43.134Z,18.40
2022-09-21T12:58:10.850Z,18.40
2022-09-21T13:01:13.582Z,18.60
2022-09-21T13:04:13.312Z,18.80
2022-09-21T13:06:52.330Z,18.90
2022-09-21T13:09:27.575Z,18.70
2022-09-21T13:12:05.653Z,18.50
2022-09-21T13:14:57.621Z,18.20
2022-09-21T13:17:52.392Z,17.70
2022-09-21T13:20:40.605Z,17.30
2022-09-21T13:23:20.423Z,17.10
2022-09-21T13:26:12.443Z,16.90
2022-09-21T13:28:54.380Z,16.90
2022-09-21T13:32:02.691Z,17.00
2022-09-21T13:34:45.989Z,17.00
2022-09-21T13:37:19.177Z,17.00
2022-09-21T13:40:06.703Z,17.00
2022-09-21T13:42:37.941Z,17.10
2022-09-21T13:45:22.371Z,17.20
2022-09-21T13:48:30.214Z,17.30
2022-09-21T13:51:02.612Z,17.40
2022-09-21T13:54:00.538Z,17.30
2022-09-21T13:56:35.602Z,17.20
2022-09-21T13:59:06.510Z,17.10
2022-09-21T14:01:52.866Z,17.20
2022-09-21T14:04:33.853Z,17.30
2022-09-21T14:07:10.861Z,17.40
2022-09-21T14:10:08.919Z,17.50
2022-09-21T14:12:51.347Z,17.30
2022-09-21T14:15:24.164Z,17.20
2022-09-21T14:18:18.368Z,17.20
2022-09-21T14:21:10.801Z,17.20
2022-09-21T14:23:42.704Z,17.30
2022-09-21T14:26:36.691Z,17.20
2022-09-21T14:29:34.821Z,17.20
2022-09-21T14:32:12.142Z,17.10
2022-09-21T14:34:47.779Z,17.00
2022-09-21T14:37:42.177Z,17.00
2022-09-21T14:40:42.539Z,16.90
2022-09-21T14:43:48.467Z,16.90
2022-09-21T14:46:26.088Z,16.90
2022-09-21T14:49:28.110Z,16.80
2022-09-21T14:52:52.317Z,16.70
2022-09-21T14:56:03.949Z,16.50
2022-09-21T14:59:08.000Z,16.40
2022-09-21T15:01:48.204Z,16.10
2022-09-21T15:04:56.344Z,15.80
2022-09-21T15:08:13.900Z,15.50
2022-09-21T15:11:02.794Z,15.40
2022-09-21T15:14:07.443Z,15.20
2022-09-21T15:16:50.627Z,15.00
2022-09-21T15:19:32.035Z,14.90
2022-09-21T15:22:26.535Z,14.80
2022-09-21T15:25:06.878Z,14.60
2022-09-21T15:27:43.371Z,14.60
2022-09-21T15:31:02.201Z,14.60
2022-09-21T15:36:42.520Z,14.30
2022-09-21T15:39:32.536Z,14.40
2022-09-21T15:42:36.653Z,14.40
2022-09-21T15:45:18.895Z,14.30
2022-09-21T15:47:50.885Z,14.30
2022-09-21T15:50:26.894Z,14.20
2022-09-21T15:53:18.751Z,14.20
2022-09-21T15:56:04.732Z,14.20
2022-09-21T15:58:40.685Z,14.10
2022-09-21T16:01:18.734Z,14.00
2022-09-21T16:04:05.450Z,13.90
2022-09-21T16:07:04.694Z,13.80
2022-09-21T16:09:49.682Z,13.80
2022-09-21T16:12:32.771Z,13.80
2022-09-21T16:18:17.706Z,13.70
2022-09-21T16:20:51.235Z,13.60
2022-09-21T16:23:34.670Z,13.50
2022-09-21T16:26:10.835Z,13.40
2022-09-21T16:28:42.039Z,13.50
2022-09-21T16:31:23.617Z,13.50
2022-09-21T16:33:53.301Z,13.40
2022-09-21T16:36:25.937Z,13.40
2022-09-21T16:38:59.231Z,13.30
2022-09-21T16:41:43.377Z,13.40
2022-09-21T16:44:27.821Z,13.20
2022-09-21T16:47:05.974Z,13.40
2022-09-21T16:49:38.284Z,13.30
2022-09-21T16:52:07.954Z,13.20
2022-09-21T16:54:39.804Z,13.10
2022-09-21T16:57:11.299Z,13.20
2022-09-21T16:59:39.288Z,13.20
2022-09-21T17:02:07.585Z,13.30
2022-09-21T17:04:38.878Z,13.30
2022-09-21T17:07:15.489Z,13.30
2022-09-21T17:09:46.569Z,13.40
2022-09-21T17:12:21.111Z,13.40
2022-09-21T17:14:51.957Z,13.40
2022-09-21T17:17:28.095Z,13.40
2022-09-21T17:20:01.775Z,13.50
2022-09-21T17:22:42.038Z,13.60
2022-09-21T17:25:20.269Z,13.50
2022-09-21T17:27:54.769Z,13.50
2022-09-21T17:30:30.400Z,13.50
2022-09-21T17:32:58.923Z,13.60
2022-09-21T17:35:41.626Z,13.60
2022-09-21T17:38:18.471Z,13.60
2022-09-21T17:40:49.513Z,13.60
2022-09-21T17:43:39.725Z,13.70
2022-09-21T17:46:38.755Z,13.60
2022-09-21T17:49:17.825Z,13.60
2022-09-21T17:52:03.871Z,13.60
2022-09-21T17:54:39.391Z,13.60
2022-09-21T17:57:44.583Z,13.60
2022-09-21T18:00:14.359Z,13.70
2022-09-21T18:02:42.151Z,13.70
2022-09-21T18:05:31.939Z,13.60
2022-09-21T18:08:03.932Z,13.60
2022-09-21T18:10:31.389Z,13.60
2022-09-21T18:13:28.234Z,13.60
2022-09-21T18:16:41.203Z,13.60
2022-09-21T18:19:23.028Z,13.60
2022-09-21T18:21:55.721Z,13.60
2022-09-21T18:24:36.271Z,13.50
2022-09-21T18:27:07.155Z,13.50
2022-09-21T18:29:41.971Z,13.50
2022-09-21T18:32:25.147Z,13.50
2022-09-21T18:35:15.669Z,13.40
2022-09-21T18:37:52.503Z,13.20
2022-09-21T18:40:31.637Z,13.30
2022-09-21T18:43:03.337Z,13.20
2022-09-21T18:45:39.460Z,13.20
2022-09-21T18:48:28.988Z,13.20
2022-09-21T18:51:19.109Z,13.20
2022-09-21T18:53:57.315Z,13.30
2022-09-21T18:56:27.146Z,13.20
2022-09-21T18:58:57.224Z,13.20
2022-09-21T19:01:39.704Z,13.30
2022-09-21T19:04:08.492Z,13.30
2022-09-21T19:06:43.014Z,13.30
2022-09-21T19:09:19.197Z,13.30
2022-09-21T19:12:11.364Z,13.30
2022-09-21T19:15:02.234Z,13.30
2022-09-21T19:17:53.108Z,13.30
2022-09-21T19:20:46.225Z,13.30
2022-09-21T19:23:22.147Z,13.40
2022-09-21T19:25:53.658Z,13.40
2022-09-21T19:28:48.655Z,13.30
2022-09-21T19:31:22.643Z,13.30
2022-09-21T19:34:02.315Z,13.40
2022-09-21T19:36:30.572Z,13.50
2022-09-21T19:38:58.673Z,13.50
2022-09-21T19:41:49.924Z,13.40
2022-09-21T19:44:39.867Z,13.50
2022-09-21T19:47:31.832Z,13.40
2022-09-21T19:50:30.043Z,13.40
2022-09-21T19:53:20.646Z,13.40
2022-09-21T19:56:07.670Z,13.40
2022-09-21T19:58:56.072Z,13.40
2022-09-21T20:01:24.435Z,13.30
2022-09-21T20:03:57.233Z,13.40
2022-09-21T20:06:37.589Z,13.40
2022-09-21T20:09:26.065Z,13.30
2022-09-21T20:12:10.054Z,13.30
2022-09-21T20:14:44.826Z,13.30
2022-09-21T20:17:19.376Z,13.30
2022-09-21T20:19:57.361Z,13.40
2022-09-21T20:22:43.831Z,13.30
2022-09-21T20:25:17.661Z,13.30
2022-09-21T20:27:51.233Z,13.30
2022-09-21T20:30:37.878Z,13.30
2022-09-21T20:33:14.885Z,13.30
2022-09-21T20:35:45.354Z,13.30
2022-09-21T20:38:12.640Z,13.30
2022-09-21T20:40:46.773Z,13.30
2022-09-21T20:43:26.949Z,13.20
2022-09-21T20:45:58.875Z,13.30
2022-09-21T20:48:26.134Z,13.20
2022-09-21T20:50:54.183Z,13.20
2022-09-21T20:53:22.101Z,13.30
2022-09-21T20:56:04.834Z,13.20
2022-09-21T20:58:42.999Z,13.20
2022-09-21T21:01:22.719Z,13.20
2022-09-21T21:03:51.266Z,13.20
2022-09-21T21:06:22.255Z,13.10
2022-09-21T21:08:52.388Z,13.20
2022-09-21T21:11:20.975Z,13.10
2022-09-21T21:13:48.736Z,13.10
2022-09-21T21:16:27.153Z,13.00
2022-09-21T21:19:00.510Z,13.00
2022-09-21T21:21:30.784Z,13.10
2022-09-21T21:24:17.010Z,13.00
2022-09-21T21:27:03.206Z,13.10
2022-09-21T21:29:32.088Z,13.00
2022-09-21T21:32:03.617Z,13.00
2022-09-21T21:34:35.390Z,12.90
2022-09-21T21:37:06.187Z,13.00
2022-09-21T21:39:36.221Z,13.00
2022-09-21T21:42:03.567Z,13.00
2022-09-21T21:44:31.449Z,13.00
2022-09-21T21:47:10.260Z,12.90
2022-09-21T21:49:43.075Z,13.00
2022-09-21T21:52:13.419Z,12.80
2022-09-21T21:54:43.481Z,12.80
2022-09-21T21:57:10.609Z,12.80
2022-09-21T21:59:40.816Z,12.90
2022-09-21T22:02:13.812Z,12.80
2022-09-21T22:04:42.730Z,12.70
2022-09-21T22:07:10.008Z,12.70
2022-09-21T22:09:37.857Z,12.70
2022-09-21T22:12:05.574Z,12.60
2022-09-21T22:14:35.736Z,12.70
2022-09-21T22:17:03.263Z,12.70
2022-09-21T22:19:30.887Z,12.60
2022-09-21T22:21:58.986Z,12.60
2022-09-21T22:24:27.062Z,12.60
2022-09-21T22:26:54.613Z,12.60
2022-09-21T22:29:25.182Z,12.50
2022-09-21T22:32:01.562Z,12.60
2022-09-21T22:34:29.348Z,12.50
2022-09-21T22:36:59.467Z,12.50
2022-09-21T22:39:28.725Z,12.50
2022-09-21T22:41:58.859Z,12.50
2022-09-21T22:44:29.621Z,12.50
2022-09-21T22:46:57.150Z,12.60
2022-09-21T22:49:24.646Z,12.50
2022-09-21T22:51:52.919Z,12.50
2022-09-21T22:54:27.789Z,12.50
2022-09-21T22:56:54.993Z,12.40
2022-09-21T22:59:26.195Z,12.40
2022-09-21T23:01:54.996Z,12.40
2022-09-21T23:04:23.404Z,12.40
2022-09-21T23:06:51.794Z,12.40
2022-09-21T23:09:22.800Z,12.40
2022-09-21T23:11:54.328Z,12.40
2022-09-21T23:14:27.204Z,12.40
2022-09-21T23:16:54.535Z,12.40
2022-09-21T23:19:22.310Z,12.30
2022-09-21T23:21:50.609Z,12.40
2022-09-21T23:24:31.362Z,12.40
2022-09-21T23:27:01.303Z,12.40
2022-09-21T23:29:28.978Z,12.40
2022-09-21T23:31:56.531Z,12.40
2022-09-21T23:34:23.943Z,12.40
2022-09-21T23:36:52.073Z,12.40
2022-09-21T23:39:21.168Z,12.40
2022-09-21T23:41:52.696Z,12.40
2022-09-21T23:44:27.977Z,12.40
2022-09-21T23:46:56.134Z,12.40
2022-09-21T23:49:32.749Z,12.40
2022-09-21T23:52:03.521Z,12.40
2022-09-21T23:54:33.240Z,12.50
2022-09-21T23:57:00.663Z,12.50
2022-09-21T23:59:28.368Z,12.40
